createdAt,value
2018-04-11T00:00:28.058Z,9.02
2018-04-11T00:02:55.014Z,8.93
2018-04-11T00:05:21.996Z,9.30
2018-04-11T00:07:48.276Z,11.00
2018-04-11T00:10:14.524Z,9.75
2018-04-11T00:12:40.742Z,11.63
2018-04-11T00:15:06.977Z,10.30
2018-04-11T00:17:33.187Z,10.02
2018-04-11T00:19:59.416Z,9.77
2018-04-11T00:22:26.391Z,10.07
2018-04-11T00:24:52.634Z,10.98
2018-04-11T00:27:18.875Z,8.75
2018-04-11T00:29:45.160Z,8.82
2018-04-11T00:32:11.402Z,9.30
2018-04-11T00:34:37.613Z,10.65
2018-04-11T00:37:03.836Z,11.30
2018-04-11T00:39:30.043Z,11.25
2018-04-11T00:41:57.002Z,10.82
2018-04-11T00:44:23.991Z,10.57
2018-04-11T00:46:50.239Z,11.68
2018-04-11T00:49:16.448Z,9.55
2018-04-11T00:51:43.431Z,9.77
2018-04-11T00:54:09.625Z,11.12
2018-04-11T00:56:35.866Z,10.18
2018-04-11T00:59:02.074Z,11.35
2018-04-11T01:01:28.325Z,13.70
2018-04-11T01:03:54.536Z,12.45
2018-04-11T01:06:20.766Z,12.85
2018-04-11T01:08:47.007Z,12.77
2018-04-11T01:11:13.259Z,13.70
2018-04-11T01:13:39.496Z,13.68
2018-04-11T01:16:05.724Z,14.32
2018-04-11T01:18:32.690Z,14.40
2018-04-11T01:20:58.918Z,14.70
2018-04-11T01:23:25.084Z,14.23
2018-04-11T01:25:51.346Z,13.23
2018-04-11T01:28:17.556Z,13.35
2018-04-11T01:30:43.797Z,14.87
2018-04-11T01:33:10.018Z,14.05
2018-04-11T01:35:36.253Z,14.13
2018-04-11T01:38:02.481Z,14.48
2018-04-11T01:40:29.443Z,13.15
2018-04-11T01:42:56.454Z,13.62
2018-04-11T01:45:22.890Z,13.25
2018-04-11T01:47:49.176Z,13.62
2018-04-11T01:50:15.453Z,15.55
2018-04-11T01:52:41.687Z,15.48
2018-04-11T01:55:07.897Z,14.90
2018-04-11T01:57:34.129Z,15.73
2018-04-11T02:00:00.350Z,15.02
2018-04-11T02:02:26.575Z,14.40
2018-04-11T02:04:52.822Z,14.52
2018-04-11T02:07:19.139Z,15.35
2018-04-11T02:09:45.377Z,15.60
2018-04-11T02:12:11.633Z,14.57
2018-04-11T02:14:37.873Z,15.52
2018-04-11T02:17:04.101Z,15.45
2018-04-11T02:19:30.327Z,16.95
2018-04-11T02:21:56.556Z,16.25
2018-04-11T02:24:23.523Z,16.25
2018-04-11T02:26:49.775Z,15.50
2018-04-11T02:29:16.049Z,16.83
2018-04-11T02:31:42.299Z,16.55
2018-04-11T02:34:08.553Z,15.57
2018-04-11T02:36:34.806Z,16.00
2018-04-11T02:39:01.062Z,14.50
2018-04-11T02:41:28.094Z,15.55
2018-04-11T02:43:54.318Z,15.80
2018-04-11T02:46:20.780Z,17.17
2018-04-11T02:48:46.976Z,14.90
2018-04-11T02:51:13.178Z,16.73
2018-04-11T02:53:40.151Z,17.87
2018-04-11T02:56:06.365Z,16.85
2018-04-11T02:58:32.592Z,17.35
2018-04-11T03:00:58.808Z,18.08
2018-04-11T03:03:25.042Z,17.73
2018-04-11T03:05:51.248Z,16.98
2018-04-11T03:08:18.202Z,16.73
2018-04-11T03:10:45.160Z,17.30
2018-04-11T03:13:12.128Z,18.85
2018-04-11T03:15:38.340Z,18.52
2018-04-11T03:18:04.594Z,19.62
2018-04-11T03:20:31.559Z,20.35
2018-04-11T03:22:58.508Z,19.05
2018-04-11T03:25:25.459Z,17.35
2018-04-11T03:27:52.429Z,17.15
2018-04-11T03:30:19.375Z,18.02
2018-04-11T03:32:46.341Z,18.40
2018-04-11T03:35:13.427Z,18.73
2018-04-11T03:37:39.661Z,18.73
2018-04-11T03:40:05.887Z,18.48
2018-04-11T03:42:32.113Z,17.77
2018-04-11T03:44:59.075Z,18.45
2018-04-11T03:47:26.069Z,18.33
2018-04-11T03:49:52.298Z,18.90
2018-04-11T03:52:18.541Z,18.80
2018-04-11T03:54:44.763Z,19.60
2018-04-11T03:57:11.716Z,21.33
2018-04-11T03:59:38.682Z,20.20
2018-04-11T04:02:04.906Z,18.73
2018-04-11T04:04:31.894Z,19.50
2018-04-11T04:06:58.110Z,21.02
2018-04-11T04:09:25.090Z,19.55
2018-04-11T04:11:51.310Z,21.27
2018-04-11T04:14:29.620Z,20.77
2018-04-11T04:17:08.214Z,20.60
2018-04-11T04:20:00.432Z,20.77
2018-04-11T04:22:26.652Z,20.73
2018-04-11T04:24:53.778Z,22.23
2018-04-11T04:27:19.984Z,20.95
2018-04-11T04:29:46.197Z,13.38
2018-04-11T04:32:13.169Z,14.32
2018-04-11T04:34:39.413Z,21.42
2018-04-11T04:37:05.645Z,16.10
2018-04-11T04:39:31.881Z,17.25
2018-04-11T04:41:58.106Z,21.60
2018-04-11T04:44:25.082Z,14.00
2018-04-11T04:46:51.297Z,13.97
2018-04-11T04:49:18.343Z,18.47
2018-04-11T04:51:44.632Z,17.00
2018-04-11T04:54:10.850Z,20.43
2018-04-11T04:56:37.823Z,16.20
2018-04-11T04:59:04.079Z,17.83
2018-04-11T05:01:30.348Z,21.83
2018-04-11T05:03:56.641Z,21.53
2018-04-11T05:06:22.870Z,23.67
2018-04-11T05:08:49.862Z,21.40
2018-04-11T05:11:16.074Z,22.73
2018-04-11T05:13:43.042Z,19.43
2018-04-11T05:16:09.274Z,23.13
2018-04-11T05:18:36.239Z,20.80
2018-04-11T05:21:02.485Z,23.87
2018-04-11T05:23:28.739Z,23.03
2018-04-11T05:25:54.972Z,22.63
2018-04-11T05:28:21.239Z,23.30
2018-04-11T05:30:47.518Z,23.57
2018-04-11T05:33:14.521Z,24.20
2018-04-11T05:35:40.791Z,26.45
2018-04-11T05:38:07.030Z,26.40
2018-04-11T05:40:33.290Z,27.80
2018-04-11T05:42:59.515Z,27.10
2018-04-11T05:45:25.804Z,26.77
2018-04-11T05:47:52.198Z,26.73
2018-04-11T05:50:18.424Z,27.10
2018-04-11T05:52:44.656Z,25.80
2018-04-11T05:55:10.884Z,25.83
2018-04-11T05:57:37.121Z,25.42
2018-04-11T06:00:03.413Z,26.12
2018-04-11T06:02:29.646Z,26.45
2018-04-11T06:04:55.896Z,23.58
2018-04-11T06:07:22.113Z,27.67
2018-04-11T06:09:48.341Z,27.50
2018-04-11T06:12:14.566Z,26.00
2018-04-11T06:14:40.815Z,25.90
2018-04-11T06:17:07.043Z,26.15
2018-04-11T06:19:33.293Z,26.87
2018-04-11T06:21:59.524Z,25.73
2018-04-11T06:24:32.834Z,24.55
2018-04-11T06:26:59.075Z,22.87
2018-04-11T06:29:25.321Z,24.45
2018-04-11T06:31:51.565Z,21.33
2018-04-11T06:34:17.796Z,23.20
2018-04-11T06:36:44.036Z,22.08
2018-04-11T06:39:10.283Z,22.42
2018-04-11T06:41:36.509Z,21.05
2018-04-11T06:44:02.781Z,17.52
2018-04-11T06:46:29.738Z,19.95
2018-04-11T06:48:56.129Z,18.20
2018-04-11T06:51:23.114Z,19.23
2018-04-11T06:53:49.329Z,20.90
2018-04-11T06:56:16.307Z,18.60
2018-04-11T06:58:42.522Z,19.60
2018-04-11T07:01:09.499Z,18.30
2018-04-11T07:03:35.742Z,19.47
2018-04-11T07:06:02.722Z,18.97
2018-04-11T07:08:28.978Z,16.43
2018-04-11T07:10:55.194Z,17.73
2018-04-11T07:13:21.404Z,18.50
2018-04-11T07:15:47.645Z,16.17
2018-04-11T07:18:14.617Z,14.13
2018-04-11T07:20:40.894Z,16.80
2018-04-11T07:23:07.111Z,17.53
2018-04-11T07:25:33.323Z,19.43
2018-04-11T07:27:59.651Z,47.50
2018-04-11T07:30:25.889Z,19.50
2018-04-11T07:32:52.117Z,16.43
2018-04-11T07:35:18.336Z,17.17
2018-04-11T07:37:44.571Z,15.83
2018-04-11T07:40:10.878Z,16.40
2018-04-11T07:42:37.031Z,16.60
2018-04-11T07:45:03.281Z,16.13
2018-04-11T07:47:29.502Z,13.53
2018-04-11T07:49:56.488Z,15.03
2018-04-11T07:52:22.730Z,15.67
2018-04-11T07:54:48.983Z,15.40
2018-04-11T07:57:15.207Z,14.60
2018-04-11T07:59:41.445Z,13.33
2018-04-11T08:02:07.706Z,12.50
2018-04-11T08:04:33.936Z,13.47
2018-04-11T08:07:00.156Z,14.23
2018-04-11T08:09:26.384Z,12.80
2018-04-11T08:11:52.644Z,14.10
2018-04-11T08:14:18.907Z,11.80
2018-04-11T08:16:45.190Z,10.73
2018-04-11T08:19:12.198Z,10.60
2018-04-11T08:21:38.462Z,11.00
2018-04-11T08:24:04.592Z,8.50
2018-04-11T08:26:30.886Z,10.23
2018-04-11T08:28:57.877Z,9.97
2018-04-11T08:31:24.162Z,11.00
2018-04-11T08:33:50.410Z,9.90
2018-04-11T08:36:17.382Z,9.97
2018-04-11T08:38:44.368Z,11.37
2018-04-11T08:41:10.603Z,11.90
2018-04-11T08:43:36.822Z,11.07
2018-04-11T08:46:03.828Z,12.60
2018-04-11T08:48:30.070Z,11.77
2018-04-11T08:50:56.326Z,11.83
2018-04-11T08:53:22.548Z,11.53
2018-04-11T08:55:48.780Z,12.13
2018-04-11T08:58:15.062Z,12.23
2018-04-11T09:00:41.281Z,11.47
2018-04-11T09:03:07.489Z,12.40
2018-04-11T09:05:33.753Z,11.00
2018-04-11T09:07:59.998Z,11.97
2018-04-11T09:10:26.221Z,12.63
2018-04-11T09:12:52.464Z,13.70
2018-04-11T09:15:18.682Z,13.13
2018-04-11T09:17:44.978Z,13.93
2018-04-11T09:20:11.199Z,14.00
2018-04-11T09:22:37.432Z,14.27
2018-04-11T09:25:03.663Z,12.60
2018-04-11T09:27:29.909Z,13.10
2018-04-11T09:29:56.149Z,12.87
2018-04-11T09:32:22.398Z,12.53
2018-04-11T09:34:48.825Z,11.37
2018-04-11T09:37:15.050Z,12.20
2018-04-11T09:39:41.260Z,12.10
2018-04-11T09:42:08.259Z,8.90
2018-04-11T09:44:34.475Z,9.67
2018-04-11T09:47:00.742Z,8.00
2018-04-11T09:49:26.961Z,7.87
2018-04-11T09:51:53.953Z,9.30
2018-04-11T09:54:20.193Z,9.73
2018-04-11T09:56:46.437Z,10.37
2018-04-11T09:59:12.641Z,8.70
2018-04-11T10:01:44.894Z,9.67
2018-04-11T10:04:11.113Z,9.93
2018-04-11T10:06:37.361Z,9.83
2018-04-11T10:09:03.655Z,11.00
2018-04-11T10:11:29.889Z,11.27
2018-04-11T10:13:56.109Z,9.50
2018-04-11T10:16:23.073Z,8.63
2018-04-11T10:18:50.031Z,10.20
2018-04-11T10:21:17.023Z,8.27
2018-04-11T10:23:43.255Z,7.43
2018-04-11T10:26:09.502Z,7.53
2018-04-11T10:28:35.746Z,9.97
2018-04-11T10:31:01.996Z,8.63
2018-04-11T10:33:28.264Z,10.07
2018-04-11T10:35:54.482Z,8.90
2018-04-11T10:38:20.706Z,7.80
2018-04-11T10:40:46.940Z,8.40
2018-04-11T10:43:13.184Z,8.70
2018-04-11T10:45:39.423Z,7.70
2018-04-11T10:48:05.652Z,6.90
2018-04-11T10:50:31.850Z,6.73
2018-04-11T10:52:58.097Z,8.87
2018-04-11T10:55:24.308Z,6.63
2018-04-11T10:57:50.537Z,6.97
2018-04-11T11:00:16.746Z,7.30
2018-04-11T11:02:42.962Z,6.33
2018-04-11T11:05:09.950Z,6.07
2018-04-11T11:07:36.658Z,6.10
2018-04-11T11:10:02.984Z,7.40
2018-04-11T11:12:29.246Z,6.07
2018-04-11T11:14:55.490Z,5.90
2018-04-11T11:17:21.735Z,6.13
2018-04-11T11:20:00.841Z,5.70
2018-04-11T11:22:27.094Z,6.03
2018-04-11T11:24:53.315Z,6.77
2018-04-11T11:27:19.557Z,6.40
2018-04-11T11:29:45.799Z,5.27
2018-04-11T11:32:12.376Z,6.30
2018-04-11T11:34:38.641Z,6.23
2018-04-11T11:37:04.878Z,6.67
2018-04-11T11:39:31.140Z,7.10
2018-04-11T11:41:57.377Z,7.03
2018-04-11T11:44:23.615Z,6.13
2018-04-11T11:46:50.704Z,11.67
2018-04-11T11:49:16.956Z,6.50
2018-04-11T11:51:43.328Z,6.57
2018-04-11T11:54:09.587Z,4.73
2018-04-11T11:56:35.895Z,5.47
2018-04-11T11:59:02.135Z,4.63
2018-04-11T12:01:29.090Z,4.07
2018-04-11T12:03:55.353Z,2.93
2018-04-11T12:06:22.357Z,3.00
2018-04-11T12:08:48.579Z,3.20
2018-04-11T12:11:15.561Z,3.30
2018-04-11T12:13:41.811Z,3.97
2018-04-11T12:16:08.822Z,4.37
2018-04-11T12:18:35.829Z,4.57
2018-04-11T12:21:02.075Z,3.73
2018-04-11T12:23:28.309Z,3.47
2018-04-11T12:25:54.550Z,5.13
2018-04-11T12:28:20.817Z,5.30
2018-04-11T12:30:47.857Z,3.90
2018-04-11T12:33:14.093Z,4.80
2018-04-11T12:35:40.314Z,3.63
2018-04-11T12:38:06.550Z,4.07
2018-04-11T12:40:32.764Z,4.00
2018-04-11T12:42:58.992Z,3.80
2018-04-11T12:45:25.209Z,3.43
2018-04-11T12:47:52.166Z,4.90
2018-04-11T12:50:18.486Z,4.47
2018-04-11T12:52:45.049Z,4.60
2018-04-11T12:55:11.322Z,4.10
2018-04-11T12:57:37.582Z,4.20
2018-04-11T13:00:04.591Z,4.37
2018-04-11T13:02:30.818Z,4.20
2018-04-11T13:04:57.044Z,3.80
2018-04-11T13:07:23.259Z,4.43
2018-04-11T13:09:50.236Z,5.10
2018-04-11T13:12:16.510Z,5.27
2018-04-11T13:14:42.765Z,5.30
2018-04-11T13:17:08.998Z,5.70
2018-04-11T13:19:35.230Z,4.80
2018-04-11T13:22:01.489Z,4.67
2018-04-11T13:24:27.746Z,5.60
2018-04-11T13:26:53.971Z,6.93
2018-04-11T13:29:20.202Z,5.80
2018-04-11T13:31:46.428Z,7.00
2018-04-11T13:34:12.664Z,6.67
2018-04-11T13:36:38.892Z,5.70
2018-04-11T13:39:05.210Z,6.10
2018-04-11T13:41:31.448Z,7.03
2018-04-11T13:43:57.959Z,7.00
2018-04-11T13:46:24.219Z,7.20
2018-04-11T13:48:50.750Z,7.97
2018-04-11T13:51:17.184Z,7.57
2018-04-11T13:53:43.632Z,7.30
2018-04-11T13:56:09.934Z,7.20
2018-04-11T13:58:36.162Z,7.23
2018-04-11T14:01:03.204Z,9.10
2018-04-11T14:03:29.459Z,7.70
2018-04-11T14:05:55.725Z,7.60
2018-04-11T14:08:22.031Z,9.73
2018-04-11T14:10:48.274Z,8.30
2018-04-11T14:13:14.538Z,8.50
2018-04-11T14:15:41.071Z,9.17
2018-04-11T14:18:07.333Z,9.43
2018-04-11T14:20:33.604Z,10.10
2018-04-11T14:23:00.565Z,9.00
2018-04-11T14:25:26.854Z,10.43
2018-04-11T14:27:53.824Z,10.00
2018-04-11T14:30:20.085Z,12.10
2018-04-11T14:32:46.310Z,11.00
2018-04-11T14:35:12.605Z,11.57
2018-04-11T14:37:38.854Z,12.60
2018-04-11T14:40:05.131Z,11.33
2018-04-11T14:42:31.383Z,12.20
2018-04-11T14:44:57.829Z,13.57
2018-04-11T14:47:24.085Z,12.17
2018-04-11T14:49:50.351Z,10.67
2018-04-11T14:52:16.589Z,12.20
2018-04-11T14:54:42.845Z,12.50
2018-04-11T14:57:09.109Z,12.87
2018-04-11T14:59:36.093Z,12.70
2018-04-11T15:02:02.306Z,12.43
2018-04-11T15:04:28.540Z,11.80
2018-04-11T15:06:55.525Z,11.63
2018-04-11T15:09:21.754Z,14.10
2018-04-11T15:11:48.035Z,11.13
2018-04-11T15:14:14.264Z,13.43
2018-04-11T15:16:40.517Z,11.80
2018-04-11T15:19:06.735Z,12.03
2018-04-11T15:21:32.980Z,13.17
2018-04-11T15:23:59.212Z,11.70
2018-04-11T15:26:25.460Z,11.97
2018-04-11T15:28:51.693Z,10.77
2018-04-11T15:31:18.054Z,11.47
2018-04-11T15:33:44.423Z,11.43
2018-04-11T15:36:10.717Z,10.97
2018-04-11T15:38:36.952Z,12.40
2018-04-11T15:41:03.216Z,11.00
2018-04-11T15:43:29.453Z,10.60
2018-04-11T15:45:55.722Z,9.90
2018-04-11T15:48:21.978Z,9.67
2018-04-11T15:50:48.298Z,9.83
2018-04-11T15:53:14.526Z,9.43
2018-04-11T15:55:40.928Z,9.30
2018-04-11T15:58:07.898Z,9.90
2018-04-11T16:00:34.168Z,8.73
2018-04-11T16:03:00.400Z,8.90
2018-04-11T16:05:26.688Z,9.10
2018-04-11T16:07:52.890Z,10.00
2018-04-11T16:10:19.145Z,8.07
2018-04-11T16:12:45.394Z,8.90
2018-04-11T16:15:11.627Z,8.20
2018-04-11T16:17:37.901Z,8.83
2018-04-11T16:20:04.875Z,8.43
2018-04-11T16:22:31.130Z,8.53
2018-04-11T16:24:57.362Z,6.93
2018-04-11T16:27:23.597Z,9.50
2018-04-11T16:29:49.833Z,8.80
2018-04-11T16:32:16.788Z,9.60
2018-04-11T16:34:43.773Z,9.37
2018-04-11T16:37:10.021Z,8.43
2018-04-11T16:39:36.277Z,10.27
2018-04-11T16:42:02.510Z,9.90
2018-04-11T16:44:28.741Z,9.40
2018-04-11T16:46:54.995Z,9.20
2018-04-11T16:49:21.220Z,10.60
2018-04-11T16:51:47.477Z,9.50
2018-04-11T16:54:13.734Z,9.47
2018-04-11T16:56:40.056Z,9.70
2018-04-11T16:59:06.316Z,10.97
2018-04-11T17:01:32.580Z,10.30
2018-04-11T17:03:59.582Z,10.67
2018-04-11T17:06:25.846Z,10.87
2018-04-11T17:08:52.093Z,9.93
2018-04-11T17:11:18.390Z,10.50
2018-04-11T17:13:44.734Z,11.37
2018-04-11T17:16:11.064Z,9.93
2018-04-11T17:18:38.090Z,10.30
2018-04-11T17:21:16.577Z,9.37
2018-04-11T17:23:55.169Z,10.27
2018-04-11T17:26:34.626Z,10.50
2018-04-11T17:29:13.880Z,9.60
2018-04-11T17:31:41.320Z,10.17
2018-04-11T17:34:08.200Z,10.80
2018-04-11T17:36:35.234Z,10.67
2018-04-11T17:39:01.513Z,10.07
2018-04-11T17:41:28.504Z,10.53
2018-04-11T17:43:54.814Z,10.80
2018-04-11T17:46:21.067Z,11.73
2018-04-11T17:48:47.385Z,9.93
2018-04-11T17:51:14.392Z,10.30
2018-04-11T17:53:41.147Z,11.17
2018-04-11T17:56:07.671Z,10.13
2018-04-11T17:58:33.950Z,10.97
2018-04-11T18:01:01.004Z,10.70
2018-04-11T18:03:27.355Z,10.73
2018-04-11T18:05:53.667Z,11.53
2018-04-11T18:08:20.001Z,10.93
2018-04-11T18:10:46.240Z,12.00
2018-04-11T18:13:13.318Z,12.30
2018-04-11T18:15:39.620Z,11.23
2018-04-11T18:18:06.018Z,12.10
2018-04-11T18:20:32.293Z,11.93
2018-04-11T18:22:58.664Z,12.27
2018-04-11T18:25:24.999Z,11.60
2018-04-11T18:27:51.601Z,12.70
2018-04-11T18:30:19.042Z,12.00
2018-04-11T18:32:45.356Z,11.20
2018-04-11T18:35:13.604Z,12.73
2018-04-11T18:37:41.654Z,12.77
2018-04-11T18:40:08.450Z,14.03
2018-04-11T18:42:37.015Z,12.30
2018-04-11T18:45:03.381Z,13.30
2018-04-11T18:47:29.685Z,13.13
2018-04-11T18:49:56.007Z,12.93
2018-04-11T18:52:23.045Z,12.30
2018-04-11T18:54:49.373Z,10.87
2018-04-11T18:57:16.513Z,11.73
2018-04-11T18:59:42.807Z,13.50
2018-04-11T19:02:09.087Z,11.23
2018-04-11T19:04:36.119Z,13.50
2018-04-11T19:07:03.068Z,13.17
2018-04-11T19:09:29.392Z,14.40
2018-04-11T19:11:55.702Z,13.73
2018-04-11T19:14:23.291Z,13.73
2018-04-11T19:16:51.104Z,13.47
2018-04-11T19:19:17.530Z,14.63
2018-04-11T19:21:44.066Z,15.33
2018-04-11T19:24:10.371Z,15.00
2018-04-11T19:26:37.437Z,14.07
2018-04-11T19:29:03.718Z,14.47
2018-04-11T19:31:30.066Z,14.57
2018-04-11T19:33:56.373Z,15.60
2018-04-11T19:36:22.738Z,14.50
2018-04-11T19:38:49.832Z,14.27
2018-04-11T19:41:16.143Z,13.60
2018-04-11T19:43:42.508Z,14.77
2018-04-11T19:46:09.544Z,14.93
2018-04-11T19:48:36.743Z,15.10
2018-04-11T19:51:03.275Z,14.83
2018-04-11T19:53:29.764Z,14.53
2018-04-11T19:55:56.092Z,15.50
2018-04-11T19:58:22.633Z,14.87
2018-04-11T20:00:48.949Z,14.97
2018-04-11T20:03:16.120Z,14.33
2018-04-11T20:05:42.587Z,14.40
2018-04-11T20:08:09.389Z,12.50
2018-04-11T20:10:35.726Z,13.43
2018-04-11T20:13:02.771Z,16.50
2018-04-11T20:15:29.665Z,16.10
2018-04-11T20:17:55.984Z,16.33
2018-04-11T20:20:22.580Z,16.10
2018-04-11T20:22:49.014Z,15.60
2018-04-11T20:25:15.263Z,15.87
2018-04-11T20:27:43.004Z,15.80
2018-04-11T20:30:09.659Z,14.77
2018-04-11T20:32:36.105Z,15.40
2018-04-11T20:35:03.242Z,14.23
2018-04-11T20:37:29.648Z,13.60
2018-04-11T20:39:55.921Z,12.67
2018-04-11T20:42:22.166Z,14.40
2018-04-11T20:44:48.412Z,13.20
2018-04-11T20:47:14.648Z,13.57
2018-04-11T20:49:41.970Z,12.47
2018-04-11T20:52:08.517Z,10.80
2018-04-11T20:54:34.815Z,8.20
2018-04-11T20:57:01.963Z,6.60
2018-04-11T20:59:28.970Z,5.67
2018-04-11T21:01:55.281Z,4.47
2018-04-11T21:04:21.541Z,4.37
2018-04-11T21:06:47.795Z,3.40
2018-04-11T21:09:14.047Z,3.87
2018-04-11T21:11:40.398Z,3.43
2018-04-11T21:14:06.634Z,2.60
2018-04-11T21:16:32.966Z,2.90
2018-04-11T21:18:59.179Z,2.70
2018-04-11T21:21:25.792Z,3.83
2018-04-11T21:23:52.754Z,2.37
2018-04-11T21:26:19.267Z,2.77
2018-04-11T21:28:45.513Z,2.80
2018-04-11T21:31:11.812Z,1.93
2018-04-11T21:33:38.062Z,1.97
2018-04-11T21:36:04.328Z,1.90
2018-04-11T21:38:30.553Z,2.20
2018-04-11T21:40:56.797Z,2.00
2018-04-11T21:43:23.017Z,2.43
2018-04-11T21:45:49.262Z,2.50
2018-04-11T21:48:15.516Z,2.60
2018-04-11T21:50:41.765Z,1.97
2018-04-11T21:53:07.999Z,1.93
2018-04-11T21:55:34.274Z,2.07
2018-04-11T21:58:00.494Z,2.27
2018-04-11T22:00:26.740Z,1.80
2018-04-11T22:02:52.978Z,2.17
2018-04-11T22:05:19.232Z,2.27
2018-04-11T22:07:45.443Z,2.07
2018-04-11T22:10:11.694Z,1.73
2018-04-11T22:12:37.919Z,1.97
2018-04-11T22:15:04.174Z,1.60
2018-04-11T22:17:30.406Z,2.07
2018-04-11T22:19:56.636Z,2.33
2018-04-11T22:22:22.906Z,2.13
2018-04-11T22:24:49.116Z,1.80
2018-04-11T22:27:15.388Z,1.73
2018-04-11T22:29:41.601Z,1.70
2018-04-11T22:32:07.847Z,1.47
2018-04-11T22:34:34.088Z,2.00
2018-04-11T22:37:00.327Z,2.47
2018-04-11T22:39:26.570Z,1.83
2018-04-11T22:41:52.816Z,2.00
2018-04-11T22:44:19.041Z,2.03
2018-04-11T22:46:45.279Z,2.20
2018-04-11T22:49:11.508Z,2.90
2018-04-11T22:51:37.764Z,1.83
2018-04-11T22:54:03.994Z,1.60
2018-04-11T22:56:30.262Z,2.07
2018-04-11T22:58:56.507Z,1.60
2018-04-11T23:01:22.778Z,1.60
2018-04-11T23:03:49.756Z,1.47
2018-04-11T23:06:16.013Z,1.53
2018-04-11T23:08:42.230Z,1.60
2018-04-11T23:11:09.240Z,1.53
2018-04-11T23:13:36.219Z,1.57
2018-04-11T23:16:02.491Z,1.33
2018-04-11T23:18:29.489Z,1.57
2018-04-11T23:20:55.730Z,1.63
2018-04-11T23:23:21.948Z,1.23
2018-04-11T23:25:48.208Z,2.47
2018-04-11T23:28:15.165Z,1.43
2018-04-11T23:30:41.409Z,2.00
2018-04-11T23:33:07.641Z,1.60
2018-04-11T23:35:33.869Z,1.87
2018-04-11T23:38:00.130Z,1.53
2018-04-11T23:40:26.342Z,1.57
2018-04-11T23:42:52.586Z,1.20
2018-04-11T23:45:18.814Z,1.10
2018-04-11T23:47:45.057Z,1.40
2018-04-11T23:50:11.279Z,2.30
2018-04-11T23:52:38.246Z,2.33
2018-04-11T23:55:04.471Z,1.57
2018-04-11T23:57:31.450Z,1.40
2018-04-11T23:59:57.694Z,1.77
